Terminal Aerodrome Forecast
Issued by NWS Mt. Holly, NJ

Current Version | Previous Version | Text Only | Print | Product List | Glossary On
Versions: 1 2 3 4 5 6 7 8 9 10 11 12 13 14 15 16 17 18 19 20 21 22 23 24 25 26 27 28 29 30 31 32 33
000
FTAK31 PANC 281722
TAFABE
TAF
PABE 281722Z 2818/2918 20006KT P6SM BKN008
      TEMPO 2818/2820 SCT010 OVC040
     FM282000 17008KT P6SM OVC040
     FM290000 16012KT P6SM SCT040 BKN070=

USA.gov is the U.S. government's official web portal to all federal, state and local government web resources and services.